createdAt,value
2016-06-19T00:00:54.171Z,0
2016-06-19T00:01:54.190Z,0
2016-06-19T00:02:53.022Z,0
2016-06-19T00:03:53.681Z,0
2016-06-19T00:04:54.310Z,0
2016-06-19T00:05:54.954Z,0
2016-06-19T00:06:54.395Z,0
2016-06-19T00:07:54.430Z,0
2016-06-19T00:08:53.839Z,0
2016-06-19T00:09:55.094Z,0
2016-06-19T00:10:54.533Z,0
2016-06-19T00:11:55.162Z,0
2016-06-19T00:12:54.588Z,0
2016-06-19T00:13:54.029Z,0
2016-06-19T00:14:53.455Z,0
2016-06-19T00:15:54.723Z,0
2016-06-19T00:16:54.726Z,0
2016-06-19T00:17:54.777Z,0
2016-06-19T00:18:54.811Z,0
2016-06-19T00:19:54.847Z,0
2016-06-19T00:20:55.491Z,0
2016-06-19T00:21:55.526Z,0
2016-06-19T00:22:55.560Z,0
2016-06-19T00:23:54.391Z,0
2016-06-19T00:24:55.036Z,0
2016-06-19T00:25:54.461Z,0
2016-06-19T00:26:54.496Z,0
2016-06-19T00:27:55.750Z,0
2016-06-19T00:28:55.814Z,0
2016-06-19T00:29:54.599Z,0
2016-06-19T00:30:55.260Z,0
2016-06-19T00:31:55.294Z,0
2016-06-19T00:32:55.314Z,0
2016-06-19T00:33:55.957Z,0
2016-06-19T00:34:54.180Z,0
2016-06-19T00:35:55.433Z,0
2016-06-19T00:36:54.843Z,0
2016-06-19T00:37:55.487Z,0
2016-06-19T00:38:55.521Z,0
2016-06-19T00:39:55.588Z,0
2016-06-19T00:40:55.591Z,0
2016-06-19T00:41:55.641Z,0
2016-06-19T00:42:55.677Z,0
2016-06-19T00:43:56.352Z,0
2016-06-19T00:44:55.762Z,0
2016-06-19T00:45:56.390Z,0
2016-06-19T00:46:56.408Z,0
2016-06-19T00:47:55.849Z,0
2016-06-19T00:48:55.900Z,0
2016-06-19T00:49:57.138Z,0
2016-06-19T00:50:55.969Z,0
2016-06-19T00:51:54.786Z,0
2016-06-19T00:52:56.039Z,0
2016-06-19T00:53:57.292Z,0
2016-06-19T00:54:56.717Z,0
2016-06-19T00:55:55.533Z,0
2016-06-19T00:56:56.772Z,0
2016-06-19T00:57:57.446Z,0
2016-06-19T00:58:56.872Z,0
2016-06-19T00:59:55.063Z,0
2016-06-19T01:00:56.317Z,0
2016-06-19T01:01:55.742Z,0
2016-06-19T01:02:56.402Z,0
2016-06-19T01:03:57.046Z,0
2016-06-19T01:04:56.470Z,0
2016-06-19T01:05:56.506Z,0
2016-06-19T01:06:56.524Z,0
2016-06-19T01:07:56.574Z,0
2016-06-19T01:08:57.219Z,0
2016-06-19T01:09:56.644Z,0
2016-06-19T01:10:56.679Z,0
2016-06-19T01:11:57.339Z,0
2016-06-19T01:12:57.358Z,0
2016-06-19T01:13:57.393Z,0
2016-06-19T01:14:58.052Z,0
2016-06-19T01:15:56.259Z,0
2016-06-19T01:16:57.497Z,0
2016-06-19T01:17:56.329Z,0
2016-06-19T01:18:57.004Z,0
2016-06-19T01:19:57.601Z,0
2016-06-19T01:20:56.433Z,0
2016-06-19T01:21:55.873Z,0
2016-06-19T01:22:57.126Z,0
2016-06-19T01:23:57.146Z,0
2016-06-19T01:24:58.384Z,0
2016-06-19T01:25:57.825Z,0
2016-06-19T01:26:57.266Z,0
2016-06-19T01:27:57.285Z,0
2016-06-19T01:28:57.335Z,0
2016-06-19T01:29:58.573Z,0
2016-06-19T01:30:57.999Z,0
2016-06-19T01:31:57.439Z,0
2016-06-19T01:32:57.474Z,0
2016-06-19T01:33:57.509Z,0
2016-06-19T01:34:57.528Z,0
2016-06-19T01:35:58.188Z,0
2016-06-19T01:36:58.831Z,0
2016-06-19T01:37:57.647Z,0
2016-06-19T01:38:57.682Z,0
2016-06-19T01:39:57.733Z,0
2016-06-19T01:40:58.970Z,0
2016-06-19T01:41:57.177Z,0
2016-06-19T01:42:58.446Z,0
2016-06-19T01:43:58.105Z,0
2016-06-19T01:44:57.891Z,0
2016-06-19T01:45:57.331Z,0
2016-06-19T01:46:57.975Z,0
2016-06-19T01:47:57.401Z,0
2016-06-19T01:48:58.045Z,0
2016-06-19T01:49:59.298Z,0
2016-06-19T01:50:58.114Z,0
2016-06-19T01:51:58.133Z,0
2016-06-19T01:52:58.794Z,0
2016-06-19T01:53:58.219Z,0
2016-06-19T01:54:58.241Z,0
2016-06-19T01:55:59.515Z,0
2016-06-19T01:56:58.350Z,0
2016-06-19T01:57:58.998Z,0
2016-06-19T01:58:59.004Z,0
2016-06-19T01:59:59.055Z,0
2016-06-19T02:00:58.482Z,0
2016-06-19T02:01:59.127Z,0
2016-06-19T02:02:58.555Z,0
2016-06-19T02:03:58.606Z,0
2016-06-19T02:04:59.235Z,0
2016-06-19T02:05:58.051Z,0
2016-06-19T02:06:59.305Z,0
2016-06-19T02:07:57.544Z,0
2016-06-19T02:08:59.376Z,0
2016-06-19T02:09:58.207Z,0
2016-06-19T02:10:59.461Z,0
2016-06-19T02:11:58.261Z,0
2016-06-19T02:12:58.920Z,0
2016-06-19T02:14:00.174Z,0
2016-06-19T02:14:58.975Z,0
2016-06-19T02:15:58.399Z,0
2016-06-19T02:16:59.075Z,0
2016-06-19T02:17:59.110Z,0
2016-06-19T02:18:59.114Z,0
2016-06-19T02:19:59.163Z,0
2016-06-19T02:20:59.198Z,0
2016-06-19T02:21:58.608Z,0
2016-06-19T02:22:59.252Z,0
2016-06-19T02:23:58.708Z,0
2016-06-19T02:24:58.728Z,0
2016-06-19T02:25:59.372Z,0
2016-06-19T02:26:59.406Z,0
2016-06-19T02:27:59.441Z,0
2016-06-19T02:28:58.867Z,0
2016-06-19T02:30:00.120Z,0
2016-06-19T02:31:00.155Z,0
2016-06-19T02:31:59.595Z,0
2016-06-19T02:32:59.021Z,0
2016-06-19T02:34:00.259Z,0
2016-06-19T02:34:59.091Z,0
2016-06-19T02:35:59.719Z,0
2016-06-19T02:36:59.159Z,0
2016-06-19T02:38:00.429Z,0
2016-06-19T02:38:59.244Z,0
2016-06-19T02:39:59.232Z,0
2016-06-19T02:40:59.283Z,0
2016-06-19T02:41:59.318Z,0
2016-06-19T02:42:59.946Z,0
2016-06-19T02:43:58.794Z,0
2016-06-19T02:44:59.437Z,0
2016-06-19T02:46:00.675Z,0
2016-06-19T02:47:00.100Z,0
2016-06-19T02:48:01.354Z,0
2016-06-19T02:49:00.169Z,0
2016-06-19T02:50:00.798Z,0
2016-06-19T02:51:00.849Z,0
2016-06-19T02:52:00.275Z,0
2016-06-19T02:53:00.308Z,0
2016-06-19T02:53:59.140Z,0
2016-06-19T02:54:59.785Z,0
2016-06-19T02:56:01.022Z,0
2016-06-19T02:57:01.056Z,0
2016-06-19T02:58:00.498Z,0
2016-06-19T02:59:01.127Z,0
2016-06-19T03:00:01.208Z,0
2016-06-19T03:00:59.992Z,0
2016-06-19T03:01:59.418Z,0
2016-06-19T03:03:00.671Z,0
2016-06-19T03:04:00.706Z,0
2016-06-19T03:05:01.350Z,0
2016-06-19T03:06:01.995Z,0
2016-06-19T03:07:02.029Z,0
2016-06-19T03:07:59.627Z,0
2016-06-19T03:09:00.880Z,0
2016-06-19T03:10:00.320Z,0
2016-06-19T03:11:00.949Z,0
2016-06-19T03:12:00.405Z,0
2016-06-19T03:13:01.628Z,0
2016-06-19T03:14:01.069Z,0
2016-06-19T03:15:01.104Z,0
2016-06-19T03:16:01.122Z,0
2016-06-19T03:17:01.783Z,0
2016-06-19T03:18:01.193Z,0
2016-06-19T03:19:01.835Z,0
2016-06-19T03:20:01.277Z,0
2016-06-19T03:21:01.922Z,0
2016-06-19T03:22:01.971Z,0
2016-06-19T03:23:02.584Z,0
2016-06-19T03:24:01.416Z,0
2016-06-19T03:25:00.248Z,5
2016-06-19T03:26:01.485Z,5
2016-06-19T03:27:02.129Z,5
2016-06-19T03:28:00.946Z,5
2016-06-19T03:29:01.589Z,5
2016-06-19T03:30:01.046Z,5
2016-06-19T03:31:01.659Z,5
2016-06-19T03:32:01.724Z,5
2016-06-19T03:33:01.119Z,5
2016-06-19T03:34:01.779Z,5
2016-06-19T03:35:00.595Z,10
2016-06-19T03:36:02.457Z,10
2016-06-19T03:37:03.086Z,10
2016-06-19T03:38:01.917Z,10
2016-06-19T03:39:00.718Z,10
2016-06-19T03:40:02.580Z,10
2016-06-19T03:41:02.053Z,10
2016-06-19T03:42:03.259Z,10
2016-06-19T03:43:02.685Z,15
2016-06-19T03:44:02.735Z,15
2016-06-19T03:45:03.394Z,15
2016-06-19T03:46:02.179Z,15
2016-06-19T03:47:02.230Z,15
2016-06-19T03:48:01.045Z,15
2016-06-19T03:49:02.300Z,15
2016-06-19T03:50:02.334Z,15
2016-06-19T03:51:02.978Z,15
2016-06-19T03:52:03.012Z,15
2016-06-19T03:53:01.814Z,20
2016-06-19T03:54:03.082Z,20
2016-06-19T03:55:03.117Z,20
2016-06-19T03:56:01.933Z,20
2016-06-19T03:57:01.967Z,20
2016-06-19T03:58:02.018Z,25
2016-06-19T03:59:03.271Z,25
2016-06-19T04:00:02.666Z,25
2016-06-19T04:01:03.341Z,25
2016-06-19T04:02:03.969Z,30
2016-06-19T04:03:03.395Z,30
2016-06-19T04:04:02.820Z,25
2016-06-19T04:05:04.120Z,25
2016-06-19T04:06:03.514Z,25
2016-06-19T04:07:02.924Z,25
2016-06-19T04:08:02.365Z,25
2016-06-19T04:09:03.009Z,30
2016-06-19T04:10:03.028Z,30
2016-06-19T04:11:03.079Z,30
2016-06-19T04:12:03.725Z,30
2016-06-19T04:13:02.527Z,35
2016-06-19T04:14:03.172Z,35
2016-06-19T04:15:02.615Z,35
2016-06-19T04:16:04.463Z,40
2016-06-19T04:17:04.514Z,45
2016-06-19T04:18:03.332Z,45
2016-06-19T04:19:03.960Z,50
2016-06-19T04:20:02.793Z,55
2016-06-19T04:21:04.047Z,55
2016-06-19T04:22:02.862Z,55
2016-06-19T04:23:03.506Z,60
2016-06-19T04:24:03.541Z,60
2016-06-19T04:25:04.201Z,60
2016-06-19T04:26:03.595Z,65
2016-06-19T04:27:04.254Z,65
2016-06-19T04:28:03.696Z,65
2016-06-19T04:29:03.105Z,65
2016-06-19T04:30:03.140Z,70
2016-06-19T04:31:03.221Z,70
2016-06-19T04:32:02.599Z,70
2016-06-19T04:33:03.853Z,70
2016-06-19T04:34:03.295Z,70
2016-06-19T04:35:03.939Z,70
2016-06-19T04:36:03.348Z,70
2016-06-19T04:37:03.992Z,75
2016-06-19T04:38:04.668Z,80
2016-06-19T04:39:04.717Z,85
2016-06-19T04:40:03.502Z,95
2016-06-19T04:41:04.147Z,105
2016-06-19T04:42:04.181Z,125
2016-06-19T04:43:04.217Z,220
2016-06-19T04:44:04.252Z,195
2016-06-19T04:45:03.691Z,170
2016-06-19T04:46:04.320Z,200
2016-06-19T04:47:05.574Z,290
2016-06-19T04:48:04.405Z,275
2016-06-19T04:49:04.424Z,270
2016-06-19T04:50:04.475Z,300
2016-06-19T04:51:05.134Z,250
2016-06-19T04:52:04.544Z,190
2016-06-19T04:53:05.172Z,195
2016-06-19T04:54:04.629Z,160
2016-06-19T04:55:05.258Z,135
2016-06-19T04:56:05.293Z,130
2016-06-19T04:57:03.515Z,135
2016-06-19T04:58:04.158Z,130
2016-06-19T04:59:04.787Z,130
2016-06-19T05:00:04.853Z,165
2016-06-19T05:01:04.279Z,140
2016-06-19T05:02:03.689Z,185
2016-06-19T05:03:04.973Z,385
2016-06-19T05:04:05.007Z,405
2016-06-19T05:05:04.433Z,425
2016-06-19T05:06:05.061Z,405
2016-06-19T05:07:05.690Z,440
2016-06-19T05:08:05.131Z,435
2016-06-19T05:09:05.774Z,355
2016-06-19T05:10:04.591Z,265
2016-06-19T05:11:04.642Z,455
2016-06-19T05:12:05.910Z,390
2016-06-19T05:13:04.710Z,285
2016-06-19T05:14:04.745Z,295
2016-06-19T05:15:04.780Z,420
2016-06-19T05:16:05.440Z,460
2016-06-19T05:17:06.084Z,255
2016-06-19T05:18:05.509Z,230
2016-06-19T05:19:05.544Z,210
2016-06-19T05:20:06.187Z,220
2016-06-19T05:21:05.035Z,225
2016-06-19T05:22:06.898Z,190
2016-06-19T05:23:06.292Z,170
2016-06-19T05:24:05.140Z,170
2016-06-19T05:25:05.783Z,180
2016-06-19T05:26:06.427Z,170
2016-06-19T05:27:05.853Z,170
2016-06-19T05:28:05.293Z,165
2016-06-19T05:29:06.547Z,160
2016-06-19T05:30:07.175Z,150
2016-06-19T05:31:04.788Z,145
2016-06-19T05:32:06.652Z,160
2016-06-19T05:33:06.076Z,160
2016-06-19T05:34:05.533Z,165
2016-06-19T05:35:06.178Z,165
2016-06-19T05:36:06.837Z,175
2016-06-19T05:37:07.435Z,185
2016-06-19T05:38:06.281Z,190
2016-06-19T05:39:05.706Z,195
2016-06-19T05:40:06.945Z,200
2016-06-19T05:41:06.386Z,195
2016-06-19T05:42:07.029Z,195
2016-06-19T05:43:05.878Z,180
2016-06-19T05:44:05.880Z,175
2016-06-19T05:45:06.540Z,165
2016-06-19T05:46:05.965Z,155
2016-06-19T05:47:06.594Z,135
2016-06-19T05:48:06.645Z,125
2016-06-19T05:49:07.303Z,125
2016-06-19T05:50:06.729Z,125
2016-06-19T05:51:06.764Z,125
2016-06-19T05:52:06.206Z,130
2016-06-19T05:53:08.083Z,130
2016-06-19T05:54:05.650Z,135
2016-06-19T05:55:06.308Z,140
2016-06-19T05:56:07.562Z,140
2016-06-19T05:57:06.379Z,145
2016-06-19T05:58:07.022Z,150
2016-06-19T05:59:07.089Z,160
2016-06-19T06:00:07.091Z,170
2016-06-19T06:01:06.517Z,170
2016-06-19T06:02:06.568Z,180
2016-06-19T06:03:07.211Z,190
2016-06-19T06:04:06.636Z,205
2016-06-19T06:05:07.906Z,205
2016-06-19T06:06:07.315Z,205
2016-06-19T06:07:07.350Z,210
2016-06-19T06:08:07.386Z,225
2016-06-19T06:09:07.435Z,200
2016-06-19T06:10:08.079Z,210
2016-06-19T06:11:07.505Z,220
2016-06-19T06:12:06.946Z,220
2016-06-19T06:13:08.184Z,300
2016-06-19T06:14:07.625Z,275
2016-06-19T06:15:07.675Z,295
2016-06-19T06:16:07.069Z,295
2016-06-19T06:17:07.120Z,330
2016-06-19T06:18:08.388Z,395
2016-06-19T06:19:08.391Z,315
2016-06-19T06:20:08.458Z,230
2016-06-19T06:21:07.883Z,170
2016-06-19T06:22:07.918Z,190
2016-06-19T06:23:08.546Z,210
2016-06-19T06:24:08.612Z,235
2016-06-19T06:25:07.445Z,250
2016-06-19T06:26:08.056Z,260
2016-06-19T06:27:08.091Z,285
2016-06-19T06:28:08.148Z,310
2016-06-19T06:29:08.173Z,365
2016-06-19T06:30:08.839Z,430
2016-06-19T06:31:08.270Z,450
2016-06-19T06:32:07.106Z,455
2016-06-19T06:33:07.753Z,420
2016-06-19T06:34:09.618Z,430
2016-06-19T06:35:09.061Z,455
2016-06-19T06:36:09.114Z,460
2016-06-19T06:37:07.291Z,445
2016-06-19T06:38:08.561Z,415
2016-06-19T06:39:08.597Z,430
2016-06-19T06:40:09.242Z,445
2016-06-19T06:41:08.668Z,445
2016-06-19T06:42:09.329Z,420
2016-06-19T06:43:08.753Z,395
2016-06-19T06:44:08.179Z,380
2016-06-19T06:45:08.853Z,355
2016-06-19T06:46:08.874Z,340
2016-06-19T06:47:09.502Z,310
2016-06-19T06:48:08.333Z,295
2016-06-19T06:49:08.384Z,300
2016-06-19T06:50:09.621Z,305
2016-06-19T06:51:08.453Z,305
2016-06-19T06:52:08.488Z,295
2016-06-19T06:53:08.553Z,285
2016-06-19T06:54:08.557Z,285
2016-06-19T06:55:09.842Z,305
2016-06-19T06:56:08.658Z,340
2016-06-19T06:57:09.895Z,375
2016-06-19T06:58:09.931Z,385
2016-06-19T06:59:09.981Z,385
2016-06-19T07:00:09.406Z,410
2016-06-19T07:01:10.066Z,445
2016-06-19T07:02:09.491Z,430
2016-06-19T07:03:09.526Z,425
2016-06-19T07:04:10.154Z,420
2016-06-19T07:05:10.220Z,410
2016-06-19T07:06:09.645Z,385
2016-06-19T07:07:09.680Z,360
2016-06-19T07:08:09.106Z,410
2016-06-19T07:09:09.155Z,460
2016-06-19T07:10:09.800Z,510
2016-06-19T07:11:09.834Z,500
2016-06-19T07:12:09.885Z,470
2016-06-19T07:13:08.748Z,415
2016-06-19T07:14:08.736Z,350
2016-06-19T07:15:09.379Z,295
2016-06-19T07:16:10.054Z,245
2016-06-19T07:17:09.464Z,225
2016-06-19T07:18:10.109Z,230
2016-06-19T07:19:10.768Z,235
2016-06-19T07:20:10.804Z,255
2016-06-19T07:21:10.823Z,275
2016-06-19T07:22:10.263Z,305
2016-06-19T07:23:10.907Z,345
2016-06-19T07:24:10.348Z,370
2016-06-19T07:25:10.383Z,375
2016-06-19T07:26:10.417Z,355
2016-06-19T07:27:09.859Z,375
2016-06-19T07:28:09.878Z,370
2016-06-19T07:29:11.146Z,385
2016-06-19T07:30:09.369Z,380
2016-06-19T07:31:10.013Z,375
2016-06-19T07:32:11.266Z,390
2016-06-19T07:33:10.099Z,405
2016-06-19T07:34:10.117Z,440
2016-06-19T07:35:10.762Z,470
2016-06-19T07:36:09.593Z,500
2016-06-19T07:37:10.862Z,545
2016-06-19T07:38:10.897Z,485
2016-06-19T07:39:11.540Z,440
2016-06-19T07:40:10.966Z,430
2016-06-19T07:41:11.626Z,450
2016-06-19T07:42:11.051Z,455
2016-06-19T07:43:11.695Z,445
2016-06-19T07:44:11.167Z,420
2016-06-19T07:45:11.780Z,600
2016-06-19T07:46:10.597Z,1155
2016-06-19T07:47:11.850Z,1265
2016-06-19T07:48:10.072Z,1120
2016-06-19T07:49:12.529Z,950
2016-06-19T07:50:11.985Z,1280
2016-06-19T07:51:10.785Z,540
2016-06-19T07:52:11.476Z,495
2016-06-19T07:53:11.496Z,600
2016-06-19T07:54:10.905Z,475
2016-06-19T07:55:10.971Z,410
2016-06-19T07:56:11.615Z,320
2016-06-19T07:57:10.463Z,260
2016-06-19T07:58:12.294Z,215
2016-06-19T07:59:12.329Z,185
2016-06-19T08:00:12.395Z,170
2016-06-19T08:01:13.023Z,155
2016-06-19T08:02:11.855Z,135
2016-06-19T08:03:12.514Z,125
2016-06-19T08:04:11.346Z,115
2016-06-19T08:05:11.974Z,115
2016-06-19T08:06:12.619Z,115
2016-06-19T08:07:13.279Z,115
2016-06-19T08:08:12.078Z,115
2016-06-19T08:09:12.145Z,110
2016-06-19T08:10:12.788Z,110
2016-06-19T08:11:11.605Z,110
2016-06-19T08:12:13.467Z,115
2016-06-19T08:13:12.299Z,125
2016-06-19T08:14:11.741Z,135
2016-06-19T08:15:12.978Z,145
2016-06-19T08:16:13.029Z,150
2016-06-19T08:17:11.843Z,150
2016-06-19T08:18:11.894Z,160
2016-06-19T08:19:13.742Z,180
2016-06-19T08:20:13.182Z,200
2016-06-19T08:21:13.218Z,220
2016-06-19T08:22:12.627Z,235
2016-06-19T08:23:12.084Z,250
2016-06-19T08:24:12.728Z,270
2016-06-19T08:25:12.762Z,290
2016-06-19T08:26:12.797Z,310
2016-06-19T08:27:13.472Z,330
2016-06-19T08:28:12.882Z,340
2016-06-19T08:29:12.901Z,355
2016-06-19T08:30:12.952Z,370
2016-06-19T08:31:13.017Z,390
2016-06-19T08:32:13.021Z,405
2016-06-19T08:33:13.681Z,405
2016-06-19T08:34:12.497Z,405
2016-06-19T08:35:13.766Z,430
2016-06-19T08:36:12.581Z,450
2016-06-19T08:37:13.835Z,475
2016-06-19T08:38:13.276Z,465
2016-06-19T08:39:12.077Z,450
2016-06-19T08:40:14.549Z,415
2016-06-19T08:41:13.380Z,395
2016-06-19T08:42:13.415Z,370
2016-06-19T08:43:13.465Z,355
2016-06-19T08:44:13.502Z,340
2016-06-19T08:45:12.946Z,335
2016-06-19T08:46:13.577Z,335
2016-06-19T08:47:13.021Z,335
2016-06-19T08:48:13.667Z,335
2016-06-19T08:49:14.329Z,330
2016-06-19T08:50:14.348Z,325
2016-06-19T08:51:13.791Z,320
2016-06-19T08:52:13.826Z,315
2016-06-19T08:53:14.644Z,305
2016-06-19T08:54:14.507Z,300
2016-06-19T08:55:13.948Z,305
2016-06-19T08:56:13.390Z,305
2016-06-19T08:57:14.034Z,310
2016-06-19T08:58:14.070Z,320
2016-06-19T08:59:14.104Z,330
2016-06-19T09:00:14.749Z,335
2016-06-19T09:01:15.408Z,335
2016-06-19T09:02:14.209Z,320
2016-06-19T09:03:14.868Z,315
2016-06-19T09:04:14.324Z,315
2016-06-19T09:05:14.953Z,310
2016-06-19T09:06:13.159Z,310
2016-06-19T09:07:13.835Z,315
2016-06-19T09:08:14.463Z,315
2016-06-19T09:09:13.280Z,305
2016-06-19T09:10:14.533Z,300
2016-06-19T09:11:14.567Z,285
2016-06-19T09:12:13.993Z,285
2016-06-19T09:13:14.652Z,280
2016-06-19T09:14:15.312Z,280
2016-06-19T09:15:14.112Z,265
2016-06-19T09:16:14.163Z,240
2016-06-19T09:17:14.214Z,225
2016-06-19T09:18:15.451Z,210
2016-06-19T09:19:14.893Z,210
2016-06-19T09:20:14.911Z,225
2016-06-19T09:21:15.587Z,235
2016-06-19T09:22:15.605Z,240
2016-06-19T09:23:15.031Z,240
2016-06-19T09:24:15.721Z,240
2016-06-19T09:25:15.116Z,240
2016-06-19T09:26:15.761Z,245
2016-06-19T09:27:15.185Z,245
2016-06-19T09:28:14.033Z,255
2016-06-19T09:29:15.254Z,265
2016-06-19T09:30:15.305Z,265
2016-06-19T09:31:16.559Z,280
2016-06-19T09:32:15.985Z,290
2016-06-19T09:33:15.425Z,305
2016-06-19T09:34:15.460Z,320
2016-06-19T09:35:15.494Z,340
2016-06-19T09:36:15.529Z,370
2016-06-19T09:37:14.969Z,395
2016-06-19T09:38:15.005Z,425
2016-06-19T09:39:15.634Z,460
2016-06-19T09:40:16.292Z,490
2016-06-19T09:41:15.733Z,520
2016-06-19T09:42:15.769Z,550
2016-06-19T09:43:16.397Z,555
2016-06-19T09:44:16.448Z,510
2016-06-19T09:45:17.091Z,495
2016-06-19T09:46:16.517Z,545
2016-06-19T09:47:15.958Z,490
2016-06-19T09:48:15.382Z,240
2016-06-19T09:49:15.402Z,220
2016-06-19T09:50:16.077Z,240
2016-06-19T09:51:16.128Z,235
2016-06-19T09:52:16.772Z,225
2016-06-19T09:53:14.963Z,230
2016-06-19T09:54:16.247Z,255
2016-06-19T09:55:16.267Z,315
2016-06-19T09:56:16.301Z,370
2016-06-19T09:57:16.946Z,430
2016-06-19T09:58:16.980Z,480
2016-06-19T09:59:15.828Z,525
2016-06-19T10:00:16.456Z,605
2016-06-19T10:01:16.506Z,840
2016-06-19T10:02:17.150Z,845
2016-06-19T10:03:17.170Z,920
2016-06-19T10:04:17.220Z,1035
2016-06-19T10:05:17.301Z,890
2016-06-19T10:06:16.680Z,930
2016-06-19T10:07:16.120Z,830
2016-06-19T10:08:17.984Z,865
2016-06-19T10:09:16.815Z,935
2016-06-19T10:10:17.459Z,2050
2016-06-19T10:11:17.494Z,850
2016-06-19T10:12:16.919Z,975
2016-06-19T10:13:17.563Z,870
2016-06-19T10:14:17.644Z,1985
2016-06-19T10:15:16.445Z,785
2016-06-19T10:16:17.698Z,875
2016-06-19T10:17:16.515Z,730
2016-06-19T10:18:16.580Z,720
2016-06-19T10:19:17.240Z,620
2016-06-19T10:20:17.853Z,595
2016-06-19T10:21:16.685Z,590
2016-06-19T10:22:17.344Z,595
2016-06-19T10:23:17.364Z,585
2016-06-19T10:24:17.617Z,610
2016-06-19T10:25:17.464Z,645
2016-06-19T10:26:18.108Z,585
2016-06-19T10:27:17.533Z,580
2016-06-19T10:28:16.365Z,530
2016-06-19T10:29:18.228Z,460
2016-06-19T10:30:18.310Z,405
2016-06-19T10:31:17.095Z,390
2016-06-19T10:32:18.364Z,385
2016-06-19T10:33:17.805Z,365
2016-06-19T10:34:17.839Z,340
2016-06-19T10:35:17.874Z,300
2016-06-19T10:36:17.924Z,255
2016-06-19T10:37:18.552Z,220
2016-06-19T10:38:17.415Z,200
2016-06-19T10:39:19.263Z,170
2016-06-19T10:40:18.062Z,145
2016-06-19T10:41:18.129Z,120
2016-06-19T10:42:18.774Z,100
2016-06-19T10:43:18.198Z,90
2016-06-19T10:44:17.656Z,90
2016-06-19T10:45:18.267Z,95
2016-06-19T10:46:17.708Z,100
2016-06-19T10:47:18.399Z,110
2016-06-19T10:48:18.403Z,115
2016-06-19T10:49:18.438Z,125
2016-06-19T10:50:19.082Z,130
2016-06-19T10:51:19.133Z,140
2016-06-19T10:52:18.557Z,155
2016-06-19T10:53:18.608Z,180
2016-06-19T10:54:17.440Z,205
2016-06-19T10:55:19.271Z,235
2016-06-19T10:56:18.696Z,270
2016-06-19T10:57:19.371Z,305
2016-06-19T10:58:19.407Z,355
2016-06-19T10:59:18.832Z,410
2016-06-19T11:00:18.273Z,470
2016-06-19T11:01:18.309Z,545
2016-06-19T11:02:19.549Z,620
2016-06-19T11:03:18.991Z,720
2016-06-19T11:04:19.652Z,940
2016-06-19T11:05:18.469Z,710
2016-06-19T11:06:19.114Z,765
2016-06-19T11:07:19.164Z,1990
2016-06-19T11:08:19.215Z,2485
2016-06-19T11:09:18.626Z,1510
2016-06-19T11:10:19.270Z,655
2016-06-19T11:11:19.337Z,600
2016-06-19T11:12:20.559Z,590
2016-06-19T11:13:18.797Z,1175
2016-06-19T11:14:18.833Z,625
2016-06-19T11:15:19.477Z,625
2016-06-19T11:16:20.745Z,740
2016-06-19T11:17:20.171Z,1570
2016-06-19T11:18:18.987Z,1705
2016-06-19T11:19:20.866Z,1105
2016-06-19T11:20:20.900Z,1715
2016-06-19T11:21:20.341Z,940
2016-06-19T11:22:18.548Z,710
2016-06-19T11:23:19.192Z,660
2016-06-19T11:24:20.461Z,795
2016-06-19T11:25:19.901Z,1280
2016-06-19T11:26:19.312Z,1125
2016-06-19T11:27:19.987Z,1220
2016-06-19T11:28:21.240Z,1530
2016-06-19T11:29:20.056Z,935
2016-06-19T11:30:20.716Z,745
2016-06-19T11:31:19.563Z,1300
2016-06-19T11:32:20.192Z,1760
2016-06-19T11:33:20.851Z,1980
2016-06-19T11:34:19.682Z,2205
2016-06-19T11:35:20.327Z,2320
2016-06-19T11:36:19.767Z,2400
2016-06-19T11:37:20.428Z,835
2016-06-19T11:38:19.868Z,2450
2016-06-19T11:39:21.122Z,2485
2016-06-19T11:40:20.578Z,2370
2016-06-19T11:41:20.613Z,2310
2016-06-19T11:42:21.274Z,2350
2016-06-19T11:43:20.105Z,2375
2016-06-19T11:44:20.139Z,2450
2016-06-19T11:45:20.799Z,2535
2016-06-19T11:46:22.068Z,935
2016-06-19T11:47:20.291Z,485
2016-06-19T11:48:21.575Z,380
2016-06-19T11:49:20.984Z,1640
2016-06-19T11:50:21.660Z,2390
2016-06-19T11:51:20.491Z,2440
2016-06-19T11:52:21.744Z,1095
2016-06-19T11:53:21.187Z,2420
2016-06-19T11:54:21.846Z,2335
2016-06-19T11:55:21.897Z,1865
2016-06-19T11:56:20.728Z,1350
2016-06-19T11:57:21.420Z,2420
2016-06-19T11:58:22.062Z,885
2016-06-19T11:59:20.879Z,2540
2016-06-19T12:00:22.148Z,560
2016-06-19T12:01:21.620Z,445
2016-06-19T12:02:22.264Z,355
2016-06-19T12:03:21.080Z,335
2016-06-19T12:04:21.740Z,360
2016-06-19T12:05:22.415Z,725
2016-06-19T12:06:22.434Z,1140
2016-06-19T12:07:21.891Z,2470
2016-06-19T12:08:22.551Z,2540
2016-06-19T12:09:21.991Z,1660
2016-06-19T12:10:21.401Z,1055
2016-06-19T12:11:21.467Z,1320
2016-06-19T12:12:22.737Z,945
2016-06-19T12:13:21.553Z,590
2016-06-19T12:14:21.618Z,590
2016-06-19T12:15:23.481Z,620
2016-06-19T12:16:21.719Z,545
2016-06-19T12:17:22.988Z,555
2016-06-19T12:18:21.804Z,700
2016-06-19T12:19:23.073Z,580
2016-06-19T12:20:21.280Z,635
2016-06-19T12:21:21.940Z,1270
2016-06-19T12:22:23.098Z,1335
2016-06-19T12:23:22.634Z,2540
2016-06-19T12:24:23.309Z,2605
2016-06-19T12:25:23.344Z,2495
2016-06-19T12:26:23.379Z,1085
2016-06-19T12:27:23.413Z,1405
2016-06-19T12:28:22.260Z,1090
2016-06-19T12:29:24.155Z,2165
2016-06-19T12:30:22.971Z,2455
2016-06-19T12:31:23.614Z,2370
2016-06-19T12:32:23.071Z,2310
2016-06-19T12:33:23.747Z,2275
2016-06-19T12:34:23.750Z,2345
2016-06-19T12:35:23.221Z,1265
2016-06-19T12:36:23.241Z,815
2016-06-19T12:37:22.682Z,1980
2016-06-19T12:38:23.952Z,525
2016-06-19T12:39:22.782Z,390
2016-06-19T12:40:22.833Z,400
2016-06-19T12:41:24.087Z,430
2016-06-19T12:42:23.543Z,450
2016-06-19T12:43:22.985Z,530
2016-06-19T12:44:23.019Z,550
2016-06-19T12:45:23.711Z,545
2016-06-19T12:46:24.338Z,1115
2016-06-19T12:47:23.763Z,1010
2016-06-19T12:48:24.439Z,480
2016-06-19T12:49:23.880Z,455
2016-06-19T12:50:24.523Z,500
2016-06-19T12:51:23.965Z,1000
2016-06-19T12:52:23.390Z,540
2016-06-19T12:53:24.081Z,505
2016-06-19T12:54:24.710Z,740
2016-06-19T12:55:25.370Z,1740
2016-06-19T12:56:24.202Z,1280
2016-06-19T12:57:24.845Z,1045
2016-06-19T12:58:24.271Z,615
2016-06-19T12:59:25.554Z,645
2016-06-19T13:00:23.777Z,445
2016-06-19T13:01:24.437Z,1895
2016-06-19T13:02:24.472Z,2285
2016-06-19T13:03:25.100Z,2250
2016-06-19T13:04:25.182Z,2330
2016-06-19T13:05:23.967Z,1385
2016-06-19T13:06:24.642Z,2395
2016-06-19T13:07:24.707Z,625
2016-06-19T13:08:25.961Z,1490
2016-06-19T13:09:25.996Z,1915
2016-06-19T13:10:25.453Z,1770
2016-06-19T13:11:24.268Z,510
2016-06-19T13:12:24.928Z,450
2016-06-19T13:13:24.369Z,685
2016-06-19T13:14:25.045Z,865
2016-06-19T13:15:25.064Z,1640
2016-06-19T13:16:26.333Z,1965
2016-06-19T13:17:25.167Z,2350
2016-06-19T13:18:25.846Z,2125
2016-06-19T13:19:25.884Z,1675
2016-06-19T13:20:24.719Z,2190
2016-06-19T13:21:25.366Z,2230
2016-06-19T13:22:24.214Z,1655
2016-06-19T13:23:26.093Z,2040
2016-06-19T13:24:25.520Z,900
2016-06-19T13:25:25.587Z,375
2016-06-19T13:26:25.014Z,670
2016-06-19T13:27:26.283Z,2080
2016-06-19T13:28:25.724Z,1440
2016-06-19T13:29:25.166Z,505
2016-06-19T13:30:26.434Z,375
2016-06-19T13:31:26.470Z,1605
2016-06-19T13:32:25.317Z,2115
2016-06-19T13:33:25.962Z,400
2016-06-19T13:34:26.013Z,500
2016-06-19T13:35:25.470Z,1595
2016-06-19T13:36:26.115Z,705
2016-06-19T13:37:27.383Z,665
2016-06-19T13:38:26.825Z,380
2016-06-19T13:39:26.875Z,325
2016-06-19T13:40:26.926Z,295
2016-06-19T13:41:27.569Z,280
2016-06-19T13:42:26.401Z,265
2016-06-19T13:43:27.061Z,265
2016-06-19T13:44:27.110Z,295
2016-06-19T13:45:25.927Z,315
2016-06-19T13:46:25.962Z,390
2016-06-19T13:47:25.418Z,1080
2016-06-19T13:48:27.281Z,1890
2016-06-19T13:49:26.707Z,1995
2016-06-19T13:50:26.756Z,995
2016-06-19T13:51:26.807Z,725
2016-06-19T13:52:26.857Z,1380
2016-06-19T13:53:26.877Z,995
2016-06-19T13:54:27.536Z,835
2016-06-19T13:55:26.384Z,1625
2016-06-19T13:56:27.012Z,1555
2016-06-19T13:57:26.469Z,845
2016-06-19T13:58:27.113Z,1510
2016-06-19T13:59:27.757Z,450
2016-06-19T14:00:28.400Z,720